.
WxDataArchive / Data Records for 2011-08-15
2011-08-14 August 2011 2011-08-16

Data Records for Monday, 15 August 2011

Time	Temp	Chill	HIndex	Humid	Dewpt	 Wind 	HiWind	WindDir	Rain 	Barom 
-----	----	-----	------	-----	-----	------	------	-------	-----	----- 
00:00	63.9	63.9	63.9	94	62.1	0	0	---	0.00	29.904 
00:05	63.9	63.9	63.9	94	62.1	0	0	---	0.00	29.904 
00:10	63.9	63.9	63.9	94	62.1	0	1	270	0.00	29.904 
00:15	63.9	63.9	63.9	95	62.4	0	1	270	0.00	29.908 
00:20	63.7	63.7	63.7	94	61.9	0	1	270	0.00	29.908 
00:25	63.7	63.7	63.7	95	62.2	0	1	270	0.00	29.908 
00:30	63.7	63.7	63.7	95	62.2	0	0	---	0.00	29.905 
00:35	63.5	63.5	63.5	95	62.0	0	0	---	0.00	29.905 
00:40	63.5	63.5	63.5	95	62.0	0	0	---	0.00	29.905 
00:45	63.4	63.4	63.4	95	61.9	0	0	---	0.00	29.900 
00:50	63.4	63.4	63.4	95	61.9	0	0	---	0.00	29.900 
00:55	63.2	63.2	63.2	95	61.7	0	0	---	0.00	29.900 
01:00	63.2	63.2	63.2	95	61.7	0	0	---	0.00	29.898 
01:05	63.2	63.2	63.2	95	61.7	0	0	---	0.00	29.898 
01:10	63.1	63.1	63.1	95	61.6	0	0	---	0.00	29.898 
01:15	63.1	63.1	63.1	95	61.6	0	1	270	0.00	29.900 
01:20	63.1	63.1	63.1	95	61.6	0	1	270	0.00	29.900 
01:25	63.1	63.1	63.1	95	61.6	0	1	270	0.00	29.900 
01:30	63.1	63.1	63.1	95	61.6	0	1	270	0.00	29.902 
01:35	63.1	63.1	63.1	95	61.6	0	1	270	0.00	29.902 
01:40	62.9	62.9	62.9	95	61.4	0	0	---	0.00	29.902 
01:45	62.9	62.9	62.9	95	61.4	0	1	270	0.00	29.898 
01:50	62.9	62.9	62.9	95	61.4	0	1	270	0.00	29.898 
01:55	62.7	62.7	62.7	95	61.2	0	1	270	0.00	29.898 
02:00	62.7	62.7	62.7	95	61.2	0	1	270	0.00	29.896 
02:05	62.6	62.6	62.6	95	61.1	0	1	270	0.00	29.896 
02:10	62.6	62.6	62.6	95	61.1	0	1	270	0.00	29.896 
02:15	62.4	62.4	62.4	95	60.9	0	1	270	0.00	29.896 
02:20	62.4	62.4	62.4	95	60.9	0	1	270	0.00	29.896 
02:25	62.3	62.3	62.3	95	60.8	0	1	270	0.00	29.896 
02:30	62.3	62.3	62.3	95	60.8	0	1	270	0.00	29.895 
02:35	62.3	62.3	62.3	95	60.8	0	0	---	0.00	29.895 
02:40	62.1	62.1	62.1	95	60.6	0	1	270	0.00	29.895 
02:45	62.1	62.1	62.1	95	60.6	0	1	270	0.00	29.894 
02:50	62.1	62.1	62.1	95	60.6	0	1	270	0.00	29.894 
02:55	62.1	62.1	62.1	95	60.6	0	1	270	0.00	29.894 
03:00	62.1	62.1	62.1	95	60.6	0	1	270	0.00	29.893 
03:05	62.0	62.0	62.0	95	60.5	0	0	---	0.00	29.893 
03:10	62.0	62.0	62.0	95	60.5	0	1	270	0.00	29.893 
03:15	62.0	62.0	62.0	95	60.5	0	1	270	0.00	29.894 
03:20	62.0	62.0	62.0	95	60.5	0	1	270	0.00	29.894 
03:25	61.8	61.8	61.8	95	60.3	0	0	---	0.00	29.894 
03:30	61.8	61.8	61.8	95	60.3	0	1	270	0.00	29.895 
03:35	61.8	61.8	61.8	95	60.3	0	1	270	0.00	29.895 
03:40	61.6	61.6	61.6	95	60.2	0	1	270	0.00	29.895 
03:45	61.6	61.6	61.6	95	60.2	0	1	270	0.00	29.897 
03:50	61.6	61.6	61.6	95	60.2	0	1	270	0.00	29.897 
03:55	61.5	61.5	61.5	95	60.1	0	0	---	0.00	29.897 
04:00	61.5	61.5	61.5	95	60.1	0	1	270	0.00	29.902 
04:05	61.5	61.5	61.5	95	60.1	0	1	270	0.00	29.902 
04:10	61.3	61.3	61.3	95	59.9	0	1	270	0.00	29.902 
04:15	61.3	61.3	61.3	95	59.9	0	1	270	0.00	29.908 
04:20	61.3	61.3	61.3	95	59.9	0	0	---	0.00	29.908 
04:25	61.3	61.3	61.3	95	59.9	0	1	270	0.00	29.908 
04:30	61.3	61.3	61.3	95	59.9	0	1	270	0.00	29.908 
04:35	61.3	61.3	61.3	95	59.9	0	0	---	0.00	29.908 
04:40	61.2	61.2	61.2	95	59.8	0	0	---	0.00	29.908 
04:45	61.2	61.2	61.2	95	59.8	0	1	270	0.00	29.908 
04:50	61.3	61.3	61.3	95	59.9	0	1	270	0.00	29.908 
04:55	61.3	61.3	61.3	95	59.9	0	0	---	0.00	29.908 
05:00	61.5	61.5	61.5	95	60.1	0	0	---	0.00	29.905 
05:05	61.5	61.5	61.5	95	60.1	0	0	---	0.00	29.905 
05:10	61.5	61.5	61.5	95	60.1	0	1	270	0.00	29.905 
05:15	61.6	61.6	61.6	95	60.2	0	1	270	0.00	29.910 
05:20	61.6	61.6	61.6	95	60.2	0	1	270	0.00	29.910 
05:25	61.6	61.6	61.6	95	60.2	0	1	270	0.00	29.910 
05:30	61.6	61.6	61.6	95	60.2	0	1	270	0.00	29.912 
05:35	61.6	61.6	61.6	95	60.2	0	1	270	0.00	29.912 
05:40	61.6	61.6	61.6	95	60.2	0	0	---	0.00	29.912 
05:45	61.6	61.6	61.6	95	60.2	0	1	270	0.00	29.910 
05:50	61.6	61.6	61.6	95	60.2	0	1	270	0.00	29.910 
05:55	61.6	61.6	61.6	95	60.2	0	1	270	0.00	29.910 
06:00	61.5	61.5	61.5	95	60.1	0	1	270	0.00	29.914 
06:05	61.5	61.5	61.5	95	60.1	0	1	270	0.00	29.914 
06:10	61.5	61.5	61.5	95	60.1	0	2	270	0.00	29.914 
06:15	61.3	61.3	61.3	95	59.9	0	2	270	0.00	29.916 
06:20	61.3	61.3	61.3	95	59.9	0	1	270	0.00	29.916 
06:25	61.3	61.3	61.3	95	59.9	0	1	270	0.00	29.916 
06:30	61.3	61.3	61.3	95	59.9	0	1	270	0.00	29.921 
06:35	61.3	61.3	61.3	95	59.9	0	1	270	0.00	29.921 
06:40	61.5	61.5	61.5	95	60.1	0	0	---	0.00	29.921 
06:45	61.5	61.5	61.5	95	60.1	0	1	270	0.00	29.922 
06:50	61.5	61.5	61.5	95	60.1	0	2	270	0.00	29.922 
06:55	61.5	61.5	61.5	95	60.1	0	2	270	0.00	29.922 
07:00	61.5	61.5	61.5	95	60.1	0	1	270	0.00	29.925 
07:05	61.3	61.3	61.3	95	59.9	0	1	270	0.00	29.925 
07:10	61.3	61.3	61.3	95	59.9	0	0	---	0.00	29.925 
07:15	61.3	61.3	61.3	95	59.9	0	1	270	0.00	29.932 
07:20	61.2	61.2	61.2	95	59.8	0	1	270	0.00	29.932 
07:25	61.2	61.2	61.2	95	59.8	0	1	270	0.00	29.932 
07:30	61.2	61.2	61.2	95	59.8	0	1	270	0.00	29.935 
07:35	61.2	61.2	61.2	95	59.8	0	1	270	0.00	29.935 
07:40	61.3	61.3	61.3	95	59.9	0	1	270	0.00	29.935 
07:45	61.3	61.3	61.3	95	59.9	0	1	270	0.00	29.937 
07:50	61.3	61.3	61.3	95	59.9	0	1	270	0.00	29.937 
07:55	61.3	61.3	61.3	95	59.9	0	1	270	0.00	29.937 
08:00	61.5	61.5	61.5	95	60.1	0	1	270	0.00	29.943 
08:05	61.6	61.6	61.6	95	60.2	0	1	270	0.00	29.943 
08:10	61.8	61.8	61.8	95	60.3	0	1	270	0.00	29.943 
08:15	62.0	62.0	62.0	94	60.2	0	2	270	0.00	29.944 
08:20	62.0	62.0	62.0	94	60.2	0	1	270	0.00	29.944 
08:25	62.0	62.0	62.0	94	60.2	0	2	270	0.00	29.944 
08:30	62.1	62.1	62.1	93	60.0	0	1	270	0.00	29.949 
08:35	62.1	62.1	62.1	93	60.0	0	1	270	0.00	29.949 
08:40	62.3	62.3	62.3	93	60.2	0	2	270	0.00	29.949 
08:45	62.4	62.4	62.4	93	60.3	0	1	270	0.00	29.948 
08:50	62.9	62.9	62.9	93	60.8	0	1	270	0.00	29.948 
08:55	63.2	63.2	63.2	92	60.8	0	3	270	0.00	29.948 
09:00	63.7	63.7	63.7	91	61.0	0	3	270	0.00	29.947 
09:05	64.3	64.3	64.3	90	61.3	0	1	270	0.00	29.947 
09:10	64.8	64.8	64.8	88	61.2	0	1	270	0.00	29.947 
09:15	65.2	65.2	65.2	86	60.9	1	4	270	0.00	29.947 
09:20	65.6	65.6	65.6	85	61.0	0	2	270	0.00	29.947 
09:25	66.0	66.0	66.0	83	60.7	1	3	270	0.00	29.947 
09:30	66.6	66.6	66.6	83	61.3	0	3	270	0.00	29.948 
09:35	66.9	66.9	66.9	80	60.5	1	3	270	0.00	29.948 
09:40	67.3	67.3	67.3	79	60.6	1	3	270	0.00	29.948 
09:45	67.8	67.8	67.8	77	60.3	1	4	248	0.00	29.946 
09:50	68.1	68.1	68.1	77	60.6	1	3	248	0.00	29.946 
09:55	68.6	68.6	68.6	77	61.1	1	3	315	0.00	29.946 
10:00	69.1	69.1	69.1	76	61.2	1	4	315	0.00	29.952 
10:05	69.4	69.4	69.4	72	60.0	1	4	315	0.00	29.952 
10:10	69.8	69.8	69.8	73	60.7	1	2	315	0.00	29.952 
10:15	69.9	69.9	69.9	70	59.7	1	4	315	0.00	29.952 
10:20	70.3	70.3	70.3	70	60.0	1	5	315	0.00	29.952 
10:25	70.6	70.6	70.6	70	60.3	1	3	270	0.00	29.952 
10:30	71.5	71.5	71.5	68	60.4	0	3	270	0.00	29.949 
10:35	72.1	72.1	72.1	68	60.9	0	2	270	0.00	29.949 
10:40	72.3	72.3	72.3	65	59.9	0	1	270	0.00	29.949 
10:45	72.3	72.3	72.3	62	58.5	1	4	292	0.00	29.954 
10:50	72.5	72.5	72.5	63	59.2	1	4	315	0.00	29.954 
10:55	72.8	72.8	72.8	63	59.5	0	2	292	0.00	29.954 
11:00	73.5	73.5	73.5	60	58.7	1	4	90	0.00	29.946 
11:05	74.0	74.0	74.0	61	59.7	1	4	90	0.00	29.946 
11:10	74.4	74.4	74.4	59	59.1	1	4	315	0.00	29.946 
11:15	74.0	74.0	74.0	62	60.1	0	2	315	0.00	29.945 
11:20	74.6	74.6	74.6	60	59.8	0	3	112	0.00	29.945 
11:25	75.1	75.1	77.5	58	59.3	0	4	112	0.00	29.945 
11:30	75.3	75.3	77.6	59	60.0	1	7	135	0.00	29.945 
11:35	75.3	75.3	77.6	59	60.0	1	5	315	0.00	29.945 
11:40	75.4	75.4	77.7	58	59.6	1	6	112	0.00	29.945 
11:45	75.3	75.3	77.6	57	59.0	1	4	68	0.00	29.943 
11:50	75.3	75.3	77.6	58	59.5	1	4	90	0.00	29.943 
11:55	75.6	75.6	77.8	56	58.8	1	6	45	0.00	29.943 
12:00	75.3	75.3	77.6	57	59.0	1	4	270	0.00	29.942 
12:05	75.4	75.4	77.7	58	59.6	1	4	292	0.00	29.942 
12:10	75.3	75.3	77.7	55	58.0	1	4	292	0.00	29.942 
12:15	75.1	75.1	77.6	56	58.3	2	6	315	0.00	29.942 
12:20	75.1	75.1	77.6	56	58.3	2	5	292	0.00	29.942 
12:25	75.4	75.4	77.7	58	59.6	1	4	315	0.00	29.942 
12:30	75.8	75.8	77.9	56	59.0	1	3	0	0.00	29.940 
12:35	76.0	76.0	78.1	55	58.6	2	4	270	0.00	29.940 
12:40	76.0	76.0	78.1	54	58.1	2	7	292	0.00	29.940 
12:45	76.1	76.1	78.1	55	58.7	1	3	315	0.00	29.940 
12:50	76.3	76.3	78.3	56	59.4	1	4	270	0.00	29.940 
12:55	76.8	76.8	78.6	57	60.4	1	5	135	0.00	29.940 
13:00	77.2	77.2	78.9	56	60.3	1	4	68	0.00	29.939 
13:05	77.6	77.6	79.1	54	59.6	0	3	135	0.00	29.939 
13:10	77.9	77.9	79.3	54	59.9	1	5	112	0.00	29.939 
13:15	78.1	78.1	79.5	53	59.6	1	4	292	0.00	29.938 
13:20	78.1	78.1	79.3	49	57.4	1	4	315	0.00	29.938 
13:25	77.6	77.6	79.2	55	60.1	1	4	292	0.00	29.938 
13:30	77.7	77.7	79.1	51	58.1	1	3	270	0.00	29.939 
13:35	77.9	77.9	79.3	53	59.4	2	4	90	0.00	29.939 
13:40	78.1	78.1	79.4	51	58.5	1	3	112	0.00	29.939 
13:45	77.9	77.9	79.2	51	58.3	1	3	338	0.00	29.939 
13:50	77.6	77.6	79.0	51	58.0	1	5	338	0.00	29.939 
13:55	77.2	77.2	78.7	51	57.6	2	5	292	0.00	29.939 
14:00	76.8	76.8	78.5	50	56.7	1	3	292	0.00	29.937 
14:05	77.2	77.2	78.8	52	58.2	1	3	292	0.00	29.937 
14:10	77.4	77.4	78.9	51	57.8	1	3	292	0.00	29.937 
14:15	77.7	77.7	79.1	52	58.6	2	7	270	0.00	29.932 
14:20	77.9	77.9	79.2	50	57.7	1	4	292	0.00	29.932 
14:25	78.1	78.1	79.3	50	57.9	0	3	292	0.00	29.932 
14:30	78.3	78.3	79.3	47	56.4	1	4	292	0.00	29.925 
14:35	77.4	77.4	78.8	50	57.3	0	3	270	0.00	29.925 
14:40	77.6	77.6	79.1	53	59.1	0	3	90	0.00	29.925 
14:45	78.3	78.3	79.5	51	58.7	1	3	292	0.00	29.923 
14:50	78.6	78.6	79.5	48	57.2	1	3	0	0.00	29.923 
14:55	78.6	78.6	79.6	49	57.8	1	2	338	0.00	29.923 
15:00	79.0	79.0	79.8	47	57.0	1	3	292	0.00	29.922 
15:05	78.6	78.6	79.6	49	57.8	1	3	248	0.00	29.922 
15:10	77.9	77.9	79.1	49	57.2	1	3	248	0.00	29.922 
15:15	78.5	78.5	79.5	49	57.7	1	4	225	0.00	29.921 
15:20	77.9	77.9	79.2	50	57.7	0	3	135	0.00	29.921 
15:25	77.6	77.6	79.1	53	59.1	0	2	270	0.00	29.921 
15:30	77.9	77.9	79.1	49	57.2	2	4	270	0.00	29.913 
15:35	78.3	78.3	79.4	50	58.1	0	2	270	0.00	29.913 
15:40	77.7	77.7	79.0	50	57.6	0	2	270	0.00	29.913 
15:45	78.1	78.1	79.3	50	57.9	1	3	270	0.00	29.916 
15:50	78.6	78.6	79.5	48	57.2	1	3	68	0.00	29.916 
15:55	78.1	78.1	79.3	49	57.4	1	3	270	0.00	29.916 
16:00	78.5	78.5	79.5	48	57.2	1	2	270	0.00	29.914 
16:05	79.0	79.0	79.8	48	57.6	1	4	22	0.00	29.914 
16:10	79.4	79.4	79.9	45	56.2	1	3	315	0.00	29.914 
16:15	79.8	79.8	80.2	45	56.5	2	4	270	0.00	29.908 
16:20	79.8	79.8	80.2	45	56.5	1	3	270	0.00	29.908 
16:25	79.9	79.9	80.4	46	57.2	1	4	270	0.00	29.908 
16:30	79.6	79.6	80.2	47	57.6	1	4	90	0.00	29.905 
16:35	78.8	78.8	79.6	47	56.8	0	2	90	0.00	29.905 
16:40	78.6	78.6	79.5	48	57.2	1	4	315	0.00	29.905 
16:45	79.0	79.0	79.8	47	57.0	0	2	315	0.00	29.909 
16:50	79.0	79.0	79.5	43	54.6	1	3	315	0.00	29.909 
16:55	79.2	79.2	79.7	44	55.4	1	4	292	0.00	29.909 
17:00	78.6	78.6	79.4	45	55.5	1	3	292	0.00	29.910 
17:05	77.7	77.7	78.9	47	55.8	0	2	338	0.00	29.910 
17:10	77.2	77.2	78.6	46	54.8	0	1	338	0.00	29.910 
17:15	77.2	77.2	78.7	49	56.5	0	1	338	0.00	29.910 
17:20	77.7	77.7	79.0	49	57.0	1	4	338	0.00	29.910 
17:25	78.5	78.5	79.4	47	56.6	0	3	135	0.00	29.910 
17:30	79.2	79.2	79.9	47	57.2	0	2	135	0.00	29.912 
17:35	79.6	79.6	80.1	46	57.0	1	6	90	0.00	29.912 
17:40	79.8	79.8	80.2	45	56.5	1	3	112	0.00	29.912 
17:45	79.8	79.8	80.1	44	55.9	1	4	248	0.00	29.913 
17:50	79.6	79.6	79.9	43	55.1	2	6	270	0.00	29.913 
17:55	79.4	79.4	79.8	43	54.9	1	4	270	0.00	29.913 
18:00	79.6	79.6	80.0	44	55.7	1	3	270	0.00	29.914 
18:05	79.4	79.4	79.8	44	55.6	0	2	270	0.00	29.914 
18:10	79.6	79.6	80.1	46	57.0	1	4	315	0.00	29.914 
18:15	79.6	79.6	79.9	43	55.1	1	4	315	0.00	29.921 
18:20	79.4	79.4	79.8	44	55.6	1	3	292	0.00	29.921 
18:25	79.2	79.2	79.8	45	56.0	1	3	292	0.00	29.921 
18:30	79.2	79.2	79.9	47	57.2	0	2	292	0.00	29.923 
18:35	79.0	79.0	79.7	46	56.4	0	2	292	0.00	29.923 
18:40	79.0	79.0	79.7	46	56.4	1	3	292	0.00	29.923 
18:45	79.0	79.0	79.8	48	57.6	1	4	292	0.00	29.924 
18:50	78.8	78.8	79.7	48	57.4	1	5	0	0.00	29.924 
18:55	78.6	78.6	79.5	48	57.2	0	3	0	0.00	29.924 
19:00	77.9	77.9	79.1	48	56.6	1	2	0	0.00	29.923 
19:05	77.6	77.6	78.9	49	56.9	0	1	338	0.00	29.923 
19:10	77.4	77.4	78.8	50	57.3	1	4	338	0.00	29.923 
19:15	77.6	77.6	78.9	48	56.3	1	2	270	0.00	29.924 
19:20	77.4	77.4	78.8	48	56.1	0	3	338	0.00	29.924 
19:25	77.4	77.4	78.8	49	56.7	1	3	338	0.00	29.924 
19:30	77.2	77.2	78.7	50	57.1	0	2	338	0.00	29.925 
19:35	77.0	77.0	78.6	50	56.9	1	4	338	0.00	29.925 
19:40	76.8	76.8	78.5	50	56.7	0	2	315	0.00	29.925 
19:45	76.5	76.5	78.3	51	57.0	0	1	315	0.00	29.923 
19:50	76.3	76.3	78.2	52	57.4	0	1	315	0.00	29.923 
19:55	76.1	76.1	78.1	53	57.7	0	1	315	0.00	29.923 
20:00	75.8	75.8	78.0	52	56.9	0	1	315	0.00	29.925 
20:05	75.8	75.8	78.0	53	57.4	0	1	315	0.00	29.925 
20:10	75.6	75.6	77.9	52	56.7	0	1	315	0.00	29.925 
20:15	75.4	75.4	77.8	52	56.5	0	0	---	0.00	29.923 
20:20	75.3	75.3	77.7	53	57.0	0	1	315	0.00	29.923 
20:25	74.9	74.9	74.9	54	57.1	0	0	---	0.00	29.923 
20:30	74.6	74.6	74.6	55	57.3	0	0	---	0.00	29.931 
20:35	74.2	74.2	74.2	56	57.5	0	0	---	0.00	29.931 
20:40	73.9	73.9	73.9	57	57.7	0	0	---	0.00	29.931 
20:45	73.5	73.5	73.5	58	57.8	0	0	---	0.00	29.938 
20:50	73.0	73.0	73.0	58	57.3	0	0	---	0.00	29.938 
20:55	72.7	72.7	72.7	59	57.5	0	0	---	0.00	29.938 
21:00	72.3	72.3	72.3	60	57.6	0	0	---	0.00	29.942 
21:05	72.0	72.0	72.0	61	57.8	0	0	---	0.00	29.942 
21:10	71.8	71.8	71.8	62	58.1	0	0	---	0.00	29.942 
21:15	71.5	71.5	71.5	62	57.8	0	0	---	0.00	29.938 
21:20	71.1	71.1	71.1	63	57.9	0	0	---	0.00	29.938 
21:25	70.8	70.8	70.8	64	58.0	0	0	---	0.00	29.938 
21:30	70.4	70.4	70.4	64	57.6	0	0	---	0.00	29.940 
21:35	70.3	70.3	70.3	64	57.5	0	0	---	0.00	29.940 
21:40	70.1	70.1	70.1	65	57.8	0	0	---	0.00	29.940 
21:45	69.9	69.9	69.9	65	57.6	0	0	---	0.00	29.942 
21:50	69.6	69.6	69.6	65	57.3	0	0	---	0.00	29.942 
21:55	69.4	69.4	69.4	65	57.1	0	0	---	0.00	29.942 
22:00	69.3	69.3	69.3	66	57.4	0	0	---	0.00	29.943 
22:05	69.1	69.1	69.1	66	57.3	0	0	---	0.00	29.943 
22:10	68.8	68.8	68.8	67	57.4	0	0	---	0.00	29.943 
22:15	68.6	68.6	68.6	67	57.2	0	0	---	0.00	29.942 
22:20	68.4	68.4	68.4	67	57.0	0	0	---	0.00	29.942 
22:25	68.3	68.3	68.3	68	57.3	0	0	---	0.00	29.942 
22:30	67.9	67.9	67.9	68	56.9	0	0	---	0.00	29.944 
22:35	67.6	67.6	67.6	69	57.1	0	0	---	0.00	29.944 
22:40	67.3	67.3	67.3	71	57.6	0	0	---	0.00	29.944 
22:45	67.1	67.1	67.1	71	57.4	0	0	---	0.00	29.952 
22:50	66.8	66.8	66.8	72	57.5	0	0	---	0.00	29.952 
22:55	66.4	66.4	66.4	72	57.1	0	0	---	0.00	29.952 
23:00	66.1	66.1	66.1	73	57.2	0	0	---	0.00	29.954 
23:05	65.8	65.8	65.8	74	57.3	0	0	---	0.00	29.954 
23:10	65.6	65.6	65.6	75	57.5	0	0	---	0.00	29.954 
23:15	65.5	65.5	65.5	75	57.4	0	0	---	0.00	29.956 
23:20	65.5	65.5	65.5	75	57.4	0	0	---	0.00	29.956 
23:25	65.3	65.3	65.3	76	57.5	0	0	---	0.00	29.956 
23:30	65.0	65.0	65.0	77	57.6	0	0	---	0.00	29.955 
23:35	64.8	64.8	64.8	77	57.4	0	0	---	0.00	29.955 
23:40	64.8	64.8	64.8	77	57.4	0	0	---	0.00	29.955 
23:45	65.0	65.0	65.0	76	57.2	0	0	---	0.00	29.956 
23:50	65.2	65.2	65.2	76	57.4	0	0	---	0.00	29.956 
23:55	65.2	65.2	65.2	76	57.4	0	0	---	0.00	29.956 

CoCoRaHS
IN-AL-39
A2 Web Hosting
Creative Commons License
GoDaddy
search engine by freefind advanced

loaded 2018-11-12 15:29:30 • last modified 2010-11-18 10:43:29
Privacy PolicyDisclaimer
• wx.awcolley.com is powered by PmWiki v.2002016 •
• all content (unless otherwise noted) © 2018 A W Colley